Aérodrome :
LOGIN :

S'inscrire | Disclaimer

   EN    FR    IT 

 










Légende :    VFR   VFR Marginal   IFR   IFR Intensif   IFR Très Intensif
Visi : 
Plafond : 
>= 8 km
>= 3000ft
5 à 8 km
1000 à 3000 ft
1500m à 5 km
500 à 1000 ft
800 à 1500m
200 à 500 ft
< 800m
< 200 ft
Symboles :   Orages  Brouillard  Fortes neiges  Fortes précipitations  Vent > 20 kt
SIGMETs :   Divers  Orages  Givrage  Turbulence  Onde Orograph.  Cendres Volcan.







- Altitude de l'aérodrome : 622 ft
- Code IATA : BRS
- Voir les cartes d'approche


EGGD - Bristol Int.

DERNIER METAR :
  • 240820Z AUTO 24008KT 210V280 9999 SCT009 19/16 Q1013

METARs EXPIRÉS :
  • 240750Z AUTO 26010KT 9999 OVC008 18/16 Q1013
  • 240720Z AUTO 26009KT 9999 OVC007 18/16 Q1013
  • 240650Z AUTO 26011KT 9999 BKN007 18/16 Q1013
  • 240620Z 26010KT 9999 8000E SCT007 17/15 Q1013
  • 240550Z 26011KT 7000 BKN004 17/16 Q1012

TAF AMD TAF EGGD
Valide du 24 à 06h jusqu'au 25 à 06h UTC


240554Z 2406/2506 25011KT 7000 BKN004
BECMG 2406/2409 9999 FEW015
BECMG 2418/2421 14006KT
ATIS : +44 1275 473 666
Pas de NOTAMs connus pour ce terrain.
1 SIGMET publié pour la FIR London (EGTT) :
 
Orages noyés dans la masse avec grêle
EGTT SIGMET 03 VALID 240608/241000 EGRR
EGTT LONDON FIR EMBD TSGR FCST WI N5319 E00333 - N5133 E00202 - N5500 W00106 - N5500 E00137 - N5319 E00333 TOP FL380 MOV NE 35KT NC=



MET'MAP, la Météo Aéronautique d'un coup d'oeil ! - Copyright ORBIFLY Décembre 2007 - Disclaimer

ORBIFLY MET'MAP TEAM :

Programmation & Développement : Alexandra Zaïnal
Conception & Développement : Baudouin d'Aumeries
Co-Programmation & Développement : Marc-Olivier Méhu
Soutien technique & logistique : Manuel Goepfert

Contact : metmap@orbifly.com




SOURCES & CREDITS :

   NOAA